Las Vegas, Nevada
Current Conditions -  °F | °C
As of 2:56 AM on Friday 31 Oct 2014 (Local Time) from KLAS Reporting Station
Broken Clouds Broken Clouds  
Wind Chill: 18°   Ceiling: 25000
Heat Index: 18°   Visibility: 10mi
Dew Point: -1°   Wind: 9mph
Humidity: 27%   Direction: 190°S
Pressure: 29.9"   Gusts: NA
Location:  36.17°N, 115.13°W
Report Text: KLAS 310956Z 19008KT 10SM SCT200 BKN250 18/M01 A2990 RMK AO2 SLP106 T01831011
Loading
Personal Weather Stations






























Interactive Weather Map New forecast layout! Learn more

10-Day Weather Forecast

Advertisements
Track Severe Weather on mobile